Time;durP1;ratioP1;P1;durP2;ratioP2;P2;SDS_P1;SDS_P2;PMS_P1;PMS_P2;Temp;Humidity;BMP_temperature;BMP_pressure;BME280_temperature;BME280_humidity;BME280_pressure;Samples;Min_cycle;Max_cycle;Signal;HPM_P1;HPM_P2
2024/03/23 00:01:19;;;;;;;;;;;;;;;;;;2195154;59;1321;-22
2024/03/23 00:03:49;;;;;;;;;;;;;;;;;;2189971;66;1195;-22
2024/03/23 00:06:19;;;;;;;;;;;;;;;;;;2191125;67;1293;-22
2024/03/23 00:08:50;;;;;;;;;;;;;;;;;;2193959;59;1439;-23
2024/03/23 00:11:21;;;;;;;;;;;;;;;;;;2194726;59;1988;-22
2024/03/23 00:13:52;;;;;;;;;;;;;;;;;;2193468;59;1494;-22
2024/03/23 00:16:24;;;;;;;;;;;;;;;;;;2195963;59;1603;-22
2024/03/23 00:18:55;;;;;;;;;;;;;;;;;;2193004;59;1735;-22
2024/03/23 00:21:25;;;;;;;;;;;;;;;;;;2195657;66;1801;-22
2024/03/23 00:23:56;;;;;;;;;;;;;;;;;;2193891;59;1476;-22
2024/03/23 00:26:26;;;;;;;;;;;;;;;;;;2195648;66;1446;-22
2024/03/23 00:28:56;;;;;;;;;;;;;;;;;;2191229;66;1584;-22
2024/03/23 00:31:26;;;;;;;;;;;;;;;;;;2194795;66;1944;-22
2024/03/23 00:33:57;;;;;;;;;;;;;;;;;;2193911;59;1737;-22
2024/03/23 00:36:27;;;;;;;;;;;;;;;;;;2189633;67;1805;-22
2024/03/23 00:38:57;;;;;;;;;;;;;;;;;;2193408;59;1690;-22
2024/03/23 00:41:27;;;;;;;;;;;;;;;;;;2194614;59;1781;-22
2024/03/23 00:43:58;;;;;;;;;;;;;;;;;;2194522;66;1146;-22
2024/03/23 00:46:28;;;;;;;;;;;;;;;;;;2194752;59;1590;-23
2024/03/23 00:48:58;;;;;;;;;;;;;;;;;;2194144;66;1308;-22
2024/03/23 00:51:28;;;;;;;;;;;;;;;;;;2205595;66;1936;-22
2024/03/23 00:53:58;;;;;;;;;;;;;;;;;;2193117;66;1629;-22
2024/03/23 00:56:29;;;;;;;;;;;;;;;;;;2194872;66;1373;-22
2024/03/23 00:58:59;;;;;;;;;;;;;;;;;;2205171;59;2063;-23
2024/03/23 01:01:29;;;;;;;;;;;;;;;;;;2194542;66;2026;-22
2024/03/23 01:04:00;;;;;;;;;;;;;;;;;;2193348;66;1489;-22
2024/03/23 01:06:30;;;;;;;;;;;;;;;;;;2188794;67;1779;-22
2024/03/23 01:09:00;;;;;;;;;;;;;;;;;;2194064;59;1248;-22
2024/03/23 01:11:30;;;;;;;;;;;;;;;;;;2195290;59;1931;-22
2024/03/23 01:14:01;;;;;;;;;;;;;;;;;;2193416;59;1296;-22
2024/03/23 01:16:31;;;;;;;;;;;;;;;;;;2194704;66;1253;-22
2024/03/23 01:19:02;;;;;;;;;;;;;;;;;;2193371;66;1240;-23
2024/03/23 01:21:32;;;;;;;;;;;;;;;;;;2191608;66;1221;-23
2024/03/23 01:24:02;;;;;;;;;;;;;;;;;;2193659;59;1720;-23
2024/03/23 01:26:33;;;;;;;;;;;;;;;;;;2191054;66;1423;-23
2024/03/23 01:29:03;;;;;;;;;;;;;;;;;;2193916;66;1525;-23
2024/03/23 01:31:33;;;;;;;;;;;;;;;;;;2195264;66;2012;-23
2024/03/23 01:34:03;;;;;;;;;;;;;;;;;;2191425;59;1734;-23
2024/03/23 01:36:34;;;;;;;;;;;;;;;;;;2188586;67;1804;-23
2024/03/23 01:39:04;;;;;;;;;;;;;;;;;;2206094;59;1665;-23
2024/03/23 01:41:35;;;;;;;;;;;;;;;;;;2192210;59;1767;-23
2024/03/23 01:44:07;;;;;;;;;;;;;;;;;;2190709;66;1645;-23
2024/03/23 01:46:37;;;;;;;;;;;;;;;;;;2195724;59;1541;-23
2024/03/23 01:49:08;;;;;;;;;;;;;;;;;;2192325;66;1503;-23
2024/03/23 01:51:38;;;;;;;;;;;;;;;;;;2196335;59;1984;-23
2024/03/23 01:54:09;;;;;;;;;;;;;;;;;;2192336;66;1423;-23
2024/03/23 01:56:40;;;;;;;;;;;;;;;;;;2198712;54;2111;-18
2024/03/23 01:59:10;;;;;;;;;;;;;;;;;;2192413;59;2086;-17
2024/03/23 02:01:41;;;;;;;;;;;;;;;;;;2192225;67;1835;-18
2024/03/23 02:04:11;;;;;;;;;;;;;;;;;;2194307;59;1804;-17
2024/03/23 02:06:41;;;;;;;;;;;;;;;;;;2195142;59;1886;-17
2024/03/23 02:09:13;;;;;;;;;;;;;;;;;;2192117;59;2264;-18
2024/03/23 02:11:43;;;;;;;;;;;;;;;;;;2191561;59;2707;-17
2024/03/23 02:14:14;;;;;;;;;;;;;;;;;;2195269;59;1974;-18
2024/03/23 02:16:46;;;;;;;;;;;;;;;;;;2195053;67;1985;-18
2024/03/23 02:19:17;;;;;;;;;;;;;;;;;;2195024;67;1779;-17
2024/03/23 02:21:47;;;;;;;;;;;;;;;;;;2194433;66;2949;-18
2024/03/23 02:24:17;;;;;;;;;;;;;;;;;;2195121;59;2198;-17
2024/03/23 02:26:48;;;;;;;;;;;;;;;;;;2194411;67;1891;-17
2024/03/23 02:29:19;;;;;;;;;;;;;;;;;;2191624;59;1966;-18
2024/03/23 02:31:50;;;;;;;;;;;;;;;;;;2191221;66;1992;-18
2024/03/23 02:34:20;;;;;;;;;;;;;;;;;;2194995;59;1824;-17
2024/03/23 02:36:53;;;;;;;;;;;;;;;;;;2192777;67;1822;-18
2024/03/23 02:39:23;;;;;;;;;;;;;;;;;;2191835;59;2420;-17
2024/03/23 02:41:54;;;;;;;;;;;;;;;;;;2194580;59;1770;-17
2024/03/23 02:44:24;;;;;;;;;;;;;;;;;;2194611;59;1847;-17
2024/03/23 02:46:54;;;;;;;;;;;;;;;;;;2194150;67;2830;-17
2024/03/23 02:49:25;;;;;;;;;;;;;;;;;;2195038;67;1775;-18
2024/03/23 02:51:56;;;;;;;;;;;;;;;;;;2193995;66;2600;-18
2024/03/23 02:54:26;;;;;;;;;;;;;;;;;;2195310;59;1777;-17
2024/03/23 02:56:56;;;;;;;;;;;;;;;;;;2194708;59;1907;-17
2024/03/23 02:59:27;;;;;;;;;;;;;;;;;;2193625;67;1711;-17
2024/03/23 03:01:57;;;;;;;;;;;;;;;;;;2193455;67;1823;-17
2024/03/23 03:04:27;;;;;;;;;;;;;;;;;;2205809;66;1826;-17
2024/03/23 03:06:58;;;;;;;;;;;;;;;;;;2194612;66;1732;-17
2024/03/23 03:09:28;;;;;;;;;;;;;;;;;;2191492;59;2099;-17
2024/03/23 03:11:59;;;;;;;;;;;;;;;;;;2205639;66;2050;-17
2024/03/23 03:14:29;;;;;;;;;;;;;;;;;;2194990;59;1897;-18
2024/03/23 03:16:59;;;;;;;;;;;;;;;;;;2189936;67;1883;-18
2024/03/23 03:19:30;;;;;;;;;;;;;;;;;;2193798;66;2313;-17
2024/03/23 03:22:08;;;;;;;;;;;;;;;;;;2194122;66;2016;-18
2024/03/23 03:24:38;;;;;;;;;;;;;;;;;;2195380;59;2266;-18
2024/03/23 03:27:09;;;;;;;;;;;;;;;;;;2191565;66;1939;-17
2024/03/23 03:29:40;;;;;;;;;;;;;;;;;;2193772;59;2239;-17
2024/03/23 03:32:11;;;;;;;;;;;;;;;;;;2193928;67;2514;-17
2024/03/23 03:34:42;;;;;;;;;;;;;;;;;;2195361;59;1834;-18
2024/03/23 03:37:12;;;;;;;;;;;;;;;;;;2194043;66;2312;-17
2024/03/23 03:39:42;;;;;;;;;;;;;;;;;;2192189;59;2736;-18
2024/03/23 03:42:13;;;;;;;;;;;;;;;;;;2194612;59;1939;-17
2024/03/23 03:44:43;;;;;;;;;;;;;;;;;;2193491;59;1910;-18
2024/03/23 03:47:14;;;;;;;;;;;;;;;;;;2194492;67;1843;-17
2024/03/23 03:49:45;;;;;;;;;;;;;;;;;;2195330;67;2154;-17
2024/03/23 03:52:15;;;;;;;;;;;;;;;;;;2190472;67;1932;-17
2024/03/23 03:54:45;;;;;;;;;;;;;;;;;;2194492;66;1834;-17
2024/03/23 03:57:17;;;;;;;;;;;;;;;;;;2193708;59;2057;-18
2024/03/23 03:59:47;;;;;;;;;;;;;;;;;;2194842;67;1764;-17
2024/03/23 04:02:17;;;;;;;;;;;;;;;;;;2194247;66;1815;-17
2024/03/23 04:04:48;;;;;;;;;;;;;;;;;;2194450;66;3047;-18
2024/03/23 04:07:20;;;;;;;;;;;;;;;;;;2194647;59;1827;-17
2024/03/23 04:09:50;;;;;;;;;;;;;;;;;;2194963;67;1827;-17
2024/03/23 04:12:21;;;;;;;;;;;;;;;;;;2194775;59;1956;-17
2024/03/23 04:14:51;;;;;;;;;;;;;;;;;;2195443;59;1953;-18
2024/03/23 04:17:22;;;;;;;;;;;;;;;;;;2192239;66;1959;-17
2024/03/23 04:19:52;;;;;;;;;;;;;;;;;;2205852;66;2804;-18
2024/03/23 04:22:24;;;;;;;;;;;;;;;;;;2192782;67;2285;-17
2024/03/23 04:24:55;;;;;;;;;;;;;;;;;;2191482;59;1824;-17
2024/03/23 04:27:25;;;;;;;;;;;;;;;;;;2195461;66;1814;-18
2024/03/23 04:29:56;;;;;;;;;;;;;;;;;;2193766;66;2092;-17
2024/03/23 04:32:26;;;;;;;;;;;;;;;;;;2191844;67;1921;-18
2024/03/23 04:34:56;;;;;;;;;;;;;;;;;;2193961;59;1863;-17
2024/03/23 04:37:27;;;;;;;;;;;;;;;;;;2194490;59;1692;-17
2024/03/23 04:39:57;;;;;;;;;;;;;;;;;;2193149;59;2064;-17
2024/03/23 04:42:28;;;;;;;;;;;;;;;;;;2194284;67;2341;-17
2024/03/23 04:44:58;;;;;;;;;;;;;;;;;;2189997;59;2694;-17
2024/03/23 04:47:28;;;;;;;;;;;;;;;;;;2194440;66;1758;-17
2024/03/23 04:49:59;;;;;;;;;;;;;;;;;;2194290;67;1850;-17
2024/03/23 04:52:29;;;;;;;;;;;;;;;;;;2191857;67;1951;-18
2024/03/23 04:55:00;;;;;;;;;;;;;;;;;;2193566;59;1854;-18
2024/03/23 04:57:30;;;;;;;;;;;;;;;;;;2192498;67;2048;-18
2024/03/23 05:00:00;;;;;;;;;;;;;;;;;;2188929;67;1742;-18
2024/03/23 05:02:31;;;;;;;;;;;;;;;;;;2194890;67;1705;-18
2024/03/23 05:05:02;;;;;;;;;;;;;;;;;;2194621;66;1978;-18
2024/03/23 05:07:32;;;;;;;;;;;;;;;;;;2193244;59;2078;-17
2024/03/23 05:10:03;;;;;;;;;;;;;;;;;;2191527;59;1904;-17
2024/03/23 05:12:33;;;;;;;;;;;;;;;;;;2195722;59;1904;-17
2024/03/23 05:15:09;;;;;;;;;;;;;;;;;;2194441;59;1626;-18
2024/03/23 05:17:39;;;;;;;;;;;;;;;;;;2193026;67;1407;-17
2024/03/23 05:20:12;;;;;;;;;;;;;;;;;;2191978;67;1721;-17
2024/03/23 05:22:42;;;;;;;;;;;;;;;;;;2192664;59;1412;-18
2024/03/23 05:25:13;;;;;;;;;;;;;;;;;;2191909;66;1580;-18
2024/03/23 05:27:43;;;;;;;;;;;;;;;;;;2196110;66;1392;-17
2024/03/23 05:30:14;;;;;;;;;;;;;;;;;;2194859;66;1377;-18
2024/03/23 05:32:44;;;;;;;;;;;;;;;;;;2194955;66;1916;-18
2024/03/23 05:35:15;;;;;;;;;;;;;;;;;;2194000;59;1589;-18
2024/03/23 05:37:45;;;;;;;;;;;;;;;;;;2195574;59;1344;-18
2024/03/23 05:40:15;;;;;;;;;;;;;;;;;;2191208;59;2198;-18
2024/03/23 05:42:45;;;;;;;;;;;;;;;;;;2194335;67;1441;-18
2024/03/23 05:45:18;;;;;;;;;;;;;;;;;;2194621;59;1745;-18
2024/03/23 05:47:48;;;;;;;;;;;;;;;;;;2195516;66;1212;-18
2024/03/23 05:50:19;;;;;;;;;;;;;;;;;;2192597;67;1567;-18
2024/03/23 05:52:49;;;;;;;;;;;;;;;;;;2196183;67;2001;-18
2024/03/23 05:55:19;;;;;;;;;;;;;;;;;;2193707;59;1290;-18
2024/03/23 05:57:50;;;;;;;;;;;;;;;;;;2193608;67;1155;-18
2024/03/23 06:00:20;;;;;;;;;;;;;;;;;;2194516;66;1474;-18
2024/03/23 06:02:50;;;;;;;;;;;;;;;;;;2190580;67;1355;-18
2024/03/23 06:05:21;;;;;;;;;;;;;;;;;;2191929;67;1338;-20
2024/03/23 06:07:51;;;;;;;;;;;;;;;;;;2201950;59;1545;-20
2024/03/23 06:10:22;;;;;;;;;;;;;;;;;;2195066;67;1679;-20
2024/03/23 06:12:53;;;;;;;;;;;;;;;;;;2193434;59;1905;-21
2024/03/23 06:15:23;;;;;;;;;;;;;;;;;;2194293;66;1431;-20
2024/03/23 06:17:53;;;;;;;;;;;;;;;;;;2195717;66;1386;-20
2024/03/23 06:20:24;;;;;;;;;;;;;;;;;;2193219;66;1387;-20
2024/03/23 06:22:54;;;;;;;;;;;;;;;;;;2195595;59;2491;-20
2024/03/23 06:25:25;;;;;;;;;;;;;;;;;;2195040;59;1245;-20
2024/03/23 06:27:55;;;;;;;;;;;;;;;;;;2196221;59;1230;-21
2024/03/23 06:30:26;;;;;;;;;;;;;;;;;;2196421;59;1508;-21
2024/03/23 06:32:57;;;;;;;;;;;;;;;;;;2195559;59;1920;-21
2024/03/23 06:35:27;;;;;;;;;;;;;;;;;;2191916;59;1831;-21
2024/03/23 06:37:58;;;;;;;;;;;;;;;;;;2195242;59;1318;-21
2024/03/23 06:40:28;;;;;;;;;;;;;;;;;;2195461;59;1654;-21
2024/03/23 06:42:58;;;;;;;;;;;;;;;;;;2190235;59;1479;-21
2024/03/23 06:45:29;;;;;;;;;;;;;;;;;;2192678;59;1831;-21
2024/03/23 06:47:59;;;;;;;;;;;;;;;;;;2190426;67;1426;-21
2024/03/23 06:50:29;;;;;;;;;;;;;;;;;;2195082;59;1457;-21
2024/03/23 06:53:01;;;;;;;;;;;;;;;;;;2190136;66;1947;-21
2024/03/23 06:55:32;;;;;;;;;;;;;;;;;;2192960;59;1620;-21
2024/03/23 06:58:02;;;;;;;;;;;;;;;;;;2193751;59;2437;-21
2024/03/23 07:00:33;;;;;;;;;;;;;;;;;;2195906;59;1264;-21
2024/03/23 07:03:03;;;;;;;;;;;;;;;;;;2194232;66;1904;-21
2024/03/23 07:05:34;;;;;;;;;;;;;;;;;;2195447;66;1471;-21
2024/03/23 07:08:04;;;;;;;;;;;;;;;;;;2193005;59;1564;-21
2024/03/23 07:10:35;;;;;;;;;;;;;;;;;;2194887;59;1421;-21
2024/03/23 07:13:05;;;;;;;;;;;;;;;;;;2193869;59;1928;-21
2024/03/23 07:15:36;;;;;;;;;;;;;;;;;;2195633;59;1376;-21
2024/03/23 07:18:06;;;;;;;;;;;;;;;;;;2193243;67;1489;-21
2024/03/23 07:20:36;;;;;;;;;;;;;;;;;;2195630;67;1441;-21
2024/03/23 07:23:07;;;;;;;;;;;;;;;;;;2194369;59;1446;-21
2024/03/23 07:25:37;;;;;;;;;;;;;;;;;;2194520;67;1869;-21
2024/03/23 07:28:07;;;;;;;;;;;;;;;;;;2194192;66;1559;-21
2024/03/23 07:30:37;;;;;;;;;;;;;;;;;;2192849;67;1744;-21
2024/03/23 07:33:08;;;;;;;;;;;;;;;;;;2193702;59;1941;-21
2024/03/23 07:35:38;;;;;;;;;;;;;;;;;;2192845;59;2190;-21
2024/03/23 07:38:08;;;;;;;;;;;;;;;;;;2194680;59;1684;-21
2024/03/23 07:40:42;;;;;;;;;;;;;;;;;;2190639;59;1857;-21
2024/03/23 07:43:12;;;;;;;;;;;;;;;;;;2190264;59;1604;-21
2024/03/23 07:45:42;;;;;;;;;;;;;;;;;;2194807;66;1463;-21
2024/03/23 07:48:13;;;;;;;;;;;;;;;;;;2194349;66;1474;-21
2024/03/23 07:50:43;;;;;;;;;;;;;;;;;;2195404;59;1380;-21
2024/03/23 07:53:13;;;;;;;;;;;;;;;;;;2194683;59;1991;-21
2024/03/23 07:55:51;;;;;;;;;;;;;;;;;;2194456;59;1827;-21
2024/03/23 07:58:22;;;;;;;;;;;;;;;;;;2193712;67;1527;-21
2024/03/23 08:00:53;;;;;;;;;;;;;;;;;;2194439;66;1561;-21
2024/03/23 08:03:23;;;;;;;;;;;;;;;;;;2194658;66;1915;-21
2024/03/23 08:05:53;;;;;;;;;;;;;;;;;;2192910;67;1414;-21
2024/03/23 08:08:25;;;;;;;;;;;;;;;;;;2194617;59;1511;-20
2024/03/23 08:10:55;;;;;;;;;;;;;;;;;;2195486;67;1649;-21
2024/03/23 08:13:26;;;;;;;;;;;;;;;;;;2192009;59;1945;-21
2024/03/23 08:16:00;;;;;;;;;;;;;;;;;;2195258;67;1522;-21
2024/03/23 08:18:31;;;;;;;;;;;;;;;;;;2195929;66;1717;-21
2024/03/23 08:21:02;;;;;;;;;;;;;;;;;;2193310;67;1314;-20
2024/03/23 08:23:35;;;;;;;;;;;;;;;;;;2194477;67;2401;-20
2024/03/23 08:26:06;;;;;;;;;;;;;;;;;;2191980;67;1664;-21
2024/03/23 08:28:36;;;;;;;;;;;;;;;;;;2194415;67;1629;-20
2024/03/23 08:31:08;;;;;;;;;;;;;;;;;;2191328;67;1486;-20
2024/03/23 08:33:39;;;;;;;;;;;;;;;;;;2194879;59;1893;-20
2024/03/23 08:36:12;;;;;;;;;;;;;;;;;;2194326;67;1731;-21
2024/03/23 08:38:42;;;;;;;;;;;;;;;;;;2195334;59;1361;-20
2024/03/23 08:41:13;;;;;;;;;;;;;;;;;;2203439;59;1750;-21
2024/03/23 08:43:43;;;;;;;;;;;;;;;;;;2192961;67;1623;-20
2024/03/23 08:46:15;;;;;;;;;;;;;;;;;;2190896;60;1643;-21
2024/03/23 08:48:48;;;;;;;;;;;;;;;;;;2195909;66;1757;-21
2024/03/23 08:51:18;;;;;;;;;;;;;;;;;;2194981;66;2008;-21
2024/03/23 08:53:49;;;;;;;;;;;;;;;;;;2196007;66;1270;-21
2024/03/23 08:56:19;;;;;;;;;;;;;;;;;;2194834;59;1572;-21
2024/03/23 08:58:50;;;;;;;;;;;;;;;;;;2195548;66;1567;-21
2024/03/23 09:01:20;;;;;;;;;;;;;;;;;;2194342;66;1409;-21
2024/03/23 09:03:50;;;;;;;;;;;;;;;;;;2192528;66;1597;-21
2024/03/23 09:06:20;;;;;;;;;;;;;;;;;;2187989;67;1458;-21
2024/03/23 09:08:51;;;;;;;;;;;;;;;;;;2196121;66;1606;-21
2024/03/23 09:11:21;;;;;;;;;;;;;;;;;;2196160;59;1932;-21
2024/03/23 09:13:52;;;;;;;;;;;;;;;;;;2194137;59;2395;-21
2024/03/23 09:16:22;;;;;;;;;;;;;;;;;;2193665;67;1853;-21
2024/03/23 09:18:52;;;;;;;;;;;;;;;;;;2192370;67;1667;-21
2024/03/23 09:21:22;;;;;;;;;;;;;;;;;;2192635;67;1607;-23
2024/03/23 09:23:53;;;;;;;;;;;;;;;;;;2195924;59;1327;-21
2024/03/23 09:26:23;;;;;;;;;;;;;;;;;;2195328;67;1603;-21
2024/03/23 09:28:54;;;;;;;;;;;;;;;;;;2195259;66;1431;-21
2024/03/23 09:31:24;;;;;;;;;;;;;;;;;;2194855;66;1939;-21
2024/03/23 09:33:54;;;;;;;;;;;;;;;;;;2195389;59;1592;-21
2024/03/23 09:36:25;;;;;;;;;;;;;;;;;;2195225;66;1700;-21
2024/03/23 09:38:55;;;;;;;;;;;;;;;;;;2194369;59;1916;-21
2024/03/23 09:41:25;;;;;;;;;;;;;;;;;;2195299;59;1895;-21
2024/03/23 09:43:56;;;;;;;;;;;;;;;;;;2194588;66;1637;-21
2024/03/23 09:46:27;;;;;;;;;;;;;;;;;;2196595;54;2597;-24
2024/03/23 09:48:58;;;;;;;;;;;;;;;;;;2189868;59;3035;-24
2024/03/23 09:51:28;;;;;;;;;;;;;;;;;;2189427;59;2664;-24
2024/03/23 09:53:59;;;;;;;;;;;;;;;;;;2192243;59;2159;-24
2024/03/23 09:56:29;;;;;;;;;;;;;;;;;;2195443;59;1978;-24
2024/03/23 09:59:00;;;;;;;;;;;;;;;;;;2206649;59;1908;-24
2024/03/23 10:01:30;;;;;;;;;;;;;;;;;;2209958;66;1815;-24
2024/03/23 10:04:00;;;;;;;;;;;;;;;;;;2209641;59;1848;-24
2024/03/23 10:06:31;;;;;;;;;;;;;;;;;;2210271;59;1957;-24
2024/03/23 10:09:01;;;;;;;;;;;;;;;;;;2209885;66;2653;-24
2024/03/23 10:11:31;;;;;;;;;;;;;;;;;;2208287;59;1970;-24
2024/03/23 10:14:01;;;;;;;;;;;;;;;;;;2208434;59;1807;-23
2024/03/23 10:16:31;;;;;;;;;;;;;;;;;;2214064;66;1764;-23
2024/03/23 10:19:02;;;;;;;;;;;;;;;;;;2209724;59;1773;-23
2024/03/23 10:21:32;;;;;;;;;;;;;;;;;;2206859;58;1939;-23
2024/03/23 10:24:08;;;;;;;;;;;;;;;;;;2210761;59;1932;-23
2024/03/23 10:26:38;;;;;;;;;;;;;;;;;;2210187;66;1906;-23
2024/03/23 10:29:11;;;;;;;;;;;;;;;;;;2210101;58;1536;-23
2024/03/23 10:31:41;;;;;;;;;;;;;;;;;;2206862;66;1948;-23
2024/03/23 10:34:12;;;;;;;;;;;;;;;;;;2210477;59;1714;-24
2024/03/23 10:36:43;;;;;;;;;;;;;;;;;;2210449;66;1425;-23
2024/03/23 10:39:17;;;;;;;;;;;;;;;;;;2205188;59;1777;-23
2024/03/23 10:41:49;;;;;;;;;;;;;;;;;;2210416;58;1775;-23
2024/03/23 10:44:20;;;;;;;;;;;;;;;;;;2205916;66;1793;-23
2024/03/23 10:46:50;;;;;;;;;;;;;;;;;;2210005;59;1476;-23
2024/03/23 10:49:20;;;;;;;;;;;;;;;;;;2206883;66;1896;-23
2024/03/23 10:51:51;;;;;;;;;;;;;;;;;;2211121;66;1944;-23
2024/03/23 10:54:21;;;;;;;;;;;;;;;;;;2209654;66;1373;-23
2024/03/23 10:56:56;;;;;;;;;;;;;;;;;;2210606;66;1579;-23
2024/03/23 10:59:27;;;;;;;;;;;;;;;;;;2210603;66;1742;-23
2024/03/23 11:01:59;;;;;;;;;;;;;;;;;;2204870;59;2049;-24
2024/03/23 11:04:33;;;;;;;;;;;;;;;;;;2209676;66;1735;-23
2024/03/23 11:07:23;;;;;;;;;;;;;;;;;;2207031;66;1566;-23
2024/03/23 11:09:54;;;;;;;;;;;;;;;;;;2207122;58;1800;-23
2024/03/23 11:12:24;;;;;;;;;;;;;;;;;;2207091;58;1937;-23
2024/03/23 11:15:02;;;;;;;;;;;;;;;;;;2203940;59;1645;-23
2024/03/23 11:17:32;;;;;;;;;;;;;;;;;;2209895;66;1296;-23
2024/03/23 11:20:05;;;;;;;;;;;;;;;;;;2207409;66;1138;-23
2024/03/23 11:22:41;;;;;;;;;;;;;;;;;;2210230;58;1574;-23
2024/03/23 11:25:14;;;;;;;;;;;;;;;;;;2210263;66;1269;-23
2024/03/23 11:27:45;;;;;;;;;;;;;;;;;;2210413;66;1690;-23
2024/03/23 11:30:26;;;;;;;;;;;;;;;;;;2206799;66;1545;-23
2024/03/23 11:32:57;;;;;;;;;;;;;;;;;;2210334;66;1990;-23
2024/03/23 11:35:31;;;;;;;;;;;;;;;;;;2209418;59;1857;-23
2024/03/23 11:38:01;;;;;;;;;;;;;;;;;;2207198;59;2037;-23
2024/03/23 11:40:35;;;;;;;;;;;;;;;;;;2210008;58;1693;-23
2024/03/23 11:43:06;;;;;;;;;;;;;;;;;;2210199;66;1932;-23
2024/03/23 11:45:37;;;;;;;;;;;;;;;;;;2206426;66;1590;-23
2024/03/23 11:48:08;;;;;;;;;;;;;;;;;;2209427;59;1289;-24
2024/03/23 11:50:43;;;;;;;;;;;;;;;;;;2206240;66;1470;-23
2024/03/23 11:53:15;;;;;;;;;;;;;;;;;;2206619;66;1987;-23
2024/03/23 11:55:45;;;;;;;;;;;;;;;;;;2207013;66;1547;-23
2024/03/23 11:58:16;;;;;;;;;;;;;;;;;;2210306;66;1565;-23
2024/03/23 12:00:57;;;;;;;;;;;;;;;;;;2206433;66;2061;-23
2024/03/23 12:03:30;;;;;;;;;;;;;;;;;;2209431;58;1460;-23
2024/03/23 12:06:02;;;;;;;;;;;;;;;;;;2206348;59;1822;-23
2024/03/23 12:08:33;;;;;;;;;;;;;;;;;;2210381;66;1232;-23
2024/03/23 12:11:06;;;;;;;;;;;;;;;;;;2210897;58;1478;-23
2024/03/23 12:13:36;;;;;;;;;;;;;;;;;;2209581;58;2383;-24
2024/03/23 12:16:09;;;;;;;;;;;;;;;;;;2209767;66;1473;-24
2024/03/23 12:18:44;;;;;;;;;;;;;;;;;;2209467;66;1726;-24
2024/03/23 12:21:14;;;;;;;;;;;;;;;;;;2207213;66;1158;-24
2024/03/23 12:23:46;;;;;;;;;;;;;;;;;;2209149;59;1656;-24
2024/03/23 12:26:18;;;;;;;;;;;;;;;;;;2210219;66;1261;-24
2024/03/23 12:28:48;;;;;;;;;;;;;;;;;;2206289;66;1279;-24
2024/03/23 12:31:18;;;;;;;;;;;;;;;;;;2206299;66;1940;-22
2024/03/23 12:33:48;;;;;;;;;;;;;;;;;;2210010;59;1726;-23
2024/03/23 12:36:18;;;;;;;;;;;;;;;;;;2206804;60;1591;-23
2024/03/23 12:38:49;;;;;;;;;;;;;;;;;;2209669;58;1480;-23
2024/03/23 12:41:20;;;;;;;;;;;;;;;;;;2207716;59;2023;-23
2024/03/23 12:43:50;;;;;;;;;;;;;;;;;;2209585;66;1409;-23
2024/03/23 12:46:20;;;;;;;;;;;;;;;;;;2210334;58;1816;-23
2024/03/23 12:48:51;;;;;;;;;;;;;;;;;;2209459;66;1711;-23
2024/03/23 12:51:21;;;;;;;;;;;;;;;;;;2209171;66;1943;-23
2024/03/23 12:53:52;;;;;;;;;;;;;;;;;;2212851;58;2806;-24
2024/03/23 12:56:22;;;;;;;;;;;;;;;;;;2208738;59;1462;-23
2024/03/23 12:58:54;;;;;;;;;;;;;;;;;;2212289;58;2156;-23
2024/03/23 13:01:24;;;;;;;;;;;;;;;;;;2212221;58;1817;-23
2024/03/23 13:03:55;;;;;;;;;;;;;;;;;;2209008;66;1798;-23
2024/03/23 13:06:27;;;;;;;;;;;;;;;;;;2212810;58;3936;-23
2024/03/23 13:08:57;;;;;;;;;;;;;;;;;;2213670;59;1501;-23
2024/03/23 13:11:28;;;;;;;;;;;;;;;;;;2213080;58;1917;-23
2024/03/23 13:13:58;;;;;;;;;;;;;;;;;;2215017;58;2190;-23
2024/03/23 13:16:29;;;;;;;;;;;;;;;;;;2213228;58;2481;-23
2024/03/23 13:19:01;;;;;;;;;;;;;;;;;;2214468;58;2298;-23
2024/03/23 13:21:31;;;;;;;;;;;;;;;;;;2209950;59;2366;-23
2024/03/23 13:24:03;;;;;;;;;;;;;;;;;;2210538;59;1460;-23
2024/03/23 13:26:34;;;;;;;;;;;;;;;;;;2213083;58;2072;-23
2024/03/23 13:29:04;;;;;;;;;;;;;;;;;;2214440;58;1459;-23
2024/03/23 13:31:35;;;;;;;;;;;;;;;;;;2213196;58;2180;-25
2024/03/23 13:34:05;;;;;;;;;;;;;;;;;;2213137;58;1637;-23
2024/03/23 13:36:36;;;;;;;;;;;;;;;;;;2210865;58;2242;-23
2024/03/23 13:39:10;;;;;;;;;;;;;;;;;;2214713;58;2343;-23
2024/03/23 13:41:42;;;;;;;;;;;;;;;;;;2213156;58;1668;-23
2024/03/23 13:44:14;;;;;;;;;;;;;;;;;;2213942;58;2971;-23
2024/03/23 13:46:44;;;;;;;;;;;;;;;;;;2210596;59;1603;-23
2024/03/23 13:49:30;;;;;;;;;;;;;;;;;;2213632;58;1621;-23
2024/03/23 13:52:01;;;;;;;;;;;;;;;;;;2208765;59;1917;-24
2024/03/23 13:54:31;;;;;;;;;;;;;;;;;;2208557;59;2314;-23
2024/03/23 13:57:02;;;;;;;;;;;;;;;;;;2213052;58;1566;-23
2024/03/23 13:59:32;;;;;;;;;;;;;;;;;;2205448;66;1454;-23
2024/03/23 14:02:02;;;;;;;;;;;;;;;;;;2208271;59;1270;-23
2024/03/23 14:04:33;;;;;;;;;;;;;;;;;;2210630;59;1181;-23
2024/03/23 14:07:03;;;;;;;;;;;;;;;;;;2211431;66;1296;-23
2024/03/23 14:09:33;;;;;;;;;;;;;;;;;;2210226;59;1629;-23
2024/03/23 14:12:04;;;;;;;;;;;;;;;;;;2208515;59;1936;-23
2024/03/23 14:14:34;;;;;;;;;;;;;;;;;;2210617;58;1442;-23
2024/03/23 14:17:04;;;;;;;;;;;;;;;;;;2209541;59;1248;-23
2024/03/23 14:19:34;;;;;;;;;;;;;;;;;;2206905;66;1462;-23
2024/03/23 14:22:05;;;;;;;;;;;;;;;;;;2211189;59;1152;-23
2024/03/23 14:24:35;;;;;;;;;;;;;;;;;;2206565;59;1355;-23
2024/03/23 14:27:06;;;;;;;;;;;;;;;;;;2210350;58;1293;-23
2024/03/23 14:29:37;;;;;;;;;;;;;;;;;;2207081;66;1693;-23
2024/03/23 14:32:07;;;;;;;;;;;;;;;;;;2210286;66;1942;-23
2024/03/23 14:34:37;;;;;;;;;;;;;;;;;;2209659;59;1460;-23
2024/03/23 14:37:07;;;;;;;;;;;;;;;;;;2206644;66;1547;-23
2024/03/23 14:39:40;;;;;;;;;;;;;;;;;;2209806;58;1732;-23
2024/03/23 14:42:11;;;;;;;;;;;;;;;;;;2206599;59;1967;-23
2024/03/23 14:44:42;;;;;;;;;;;;;;;;;;2203470;58;1533;-23
2024/03/23 14:47:12;;;;;;;;;;;;;;;;;;2210249;59;1891;-23
2024/03/23 14:49:46;;;;;;;;;;;;;;;;;;2206688;66;1787;-23
2024/03/23 14:52:18;;;;;;;;;;;;;;;;;;2209751;66;2030;-23
2024/03/23 14:54:48;;;;;;;;;;;;;;;;;;2205585;66;1526;-23
2024/03/23 14:57:20;;;;;;;;;;;;;;;;;;2210659;66;1282;-23
2024/03/23 14:59:50;;;;;;;;;;;;;;;;;;2209451;66;2331;-23
2024/03/23 15:02:22;;;;;;;;;;;;;;;;;;2206876;59;1693;-23
2024/03/23 15:04:52;;;;;;;;;;;;;;;;;;2204082;66;1301;-23
2024/03/23 15:07:22;;;;;;;;;;;;;;;;;;2210420;66;1224;-23
2024/03/23 15:09:53;;;;;;;;;;;;;;;;;;2209943;66;1926;-23
2024/03/23 15:12:23;;;;;;;;;;;;;;;;;;2207665;59;1999;-23
2024/03/23 15:14:54;;;;;;;;;;;;;;;;;;2203676;59;1793;-23
2024/03/23 15:17:24;;;;;;;;;;;;;;;;;;2207007;66;1300;-23
2024/03/23 15:19:54;;;;;;;;;;;;;;;;;;2210345;59;1409;-22
2024/03/23 15:22:24;;;;;;;;;;;;;;;;;;2210999;66;1283;-22
2024/03/23 15:24:55;;;;;;;;;;;;;;;;;;2210617;59;1300;-22
2024/03/23 15:27:25;;;;;;;;;;;;;;;;;;2211554;66;1321;-22
2024/03/23 15:29:58;;;;;;;;;;;;;;;;;;2213913;66;1320;-22
2024/03/23 15:32:28;;;;;;;;;;;;;;;;;;2217646;66;1905;-22
2024/03/23 15:34:59;;;;;;;;;;;;;;;;;;2216058;59;1714;-22
2024/03/23 15:37:31;;;;;;;;;;;;;;;;;;2211652;66;1829;-22
2024/03/23 15:40:01;;;;;;;;;;;;;;;;;;2203191;59;1765;-22
2024/03/23 15:42:31;;;;;;;;;;;;;;;;;;2210055;66;1197;-22
2024/03/23 15:45:03;;;;;;;;;;;;;;;;;;2209832;58;1430;-22
2024/03/23 15:47:35;;;;;;;;;;;;;;;;;;2207709;58;2188;-22
2024/03/23 15:50:08;;;;;;;;;;;;;;;;;;2207387;59;1736;-22
2024/03/23 15:52:38;;;;;;;;;;;;;;;;;;2206892;59;1937;-22
2024/03/23 15:55:10;;;;;;;;;;;;;;;;;;2210040;66;1224;-22
2024/03/23 15:57:40;;;;;;;;;;;;;;;;;;2205968;59;1725;-22
2024/03/23 16:00:10;;;;;;;;;;;;;;;;;;2210759;66;1468;-23
2024/03/23 16:02:41;;;;;;;;;;;;;;;;;;2203481;59;1321;-23
2024/03/23 16:05:11;;;;;;;;;;;;;;;;;;2209874;59;1634;-23
2024/03/23 16:07:42;;;;;;;;;;;;;;;;;;2210022;66;1455;-23
2024/03/23 16:10:12;;;;;;;;;;;;;;;;;;2210596;58;1348;-23
2024/03/23 16:12:43;;;;;;;;;;;;;;;;;;2210372;58;1933;-22
2024/03/23 16:15:13;;;;;;;;;;;;;;;;;;2210437;66;1445;-22
2024/03/23 16:17:43;;;;;;;;;;;;;;;;;;2209634;66;1425;-22
2024/03/23 16:20:13;;;;;;;;;;;;;;;;;;2206948;66;1292;-22
2024/03/23 16:22:44;;;;;;;;;;;;;;;;;;2206602;58;1292;-23
2024/03/23 16:25:14;;;;;;;;;;;;;;;;;;2204778;66;1918;-22
2024/03/23 16:27:44;;;;;;;;;;;;;;;;;;2206378;66;1329;-23
2024/03/23 16:30:15;;;;;;;;;;;;;;;;;;2206702;66;1376;-22
2024/03/23 16:32:46;;;;;;;;;;;;;;;;;;2206995;66;1935;-22
2024/03/23 16:35:16;;;;;;;;;;;;;;;;;;2209503;59;1557;-22
2024/03/23 16:37:47;;;;;;;;;;;;;;;;;;2207681;58;1636;-22
2024/03/23 16:40:18;;;;;;;;;;;;;;;;;;2210383;58;1726;-22
2024/03/23 16:42:48;;;;;;;;;;;;;;;;;;2206264;66;1439;-22
2024/03/23 16:45:18;;;;;;;;;;;;;;;;;;2209896;58;2314;-22
2024/03/23 16:47:48;;;;;;;;;;;;;;;;;;2210250;58;1444;-22
2024/03/23 16:50:19;;;;;;;;;;;;;;;;;;2203807;59;1392;-22
2024/03/23 16:52:49;;;;;;;;;;;;;;;;;;2209866;58;1944;-22
2024/03/23 16:55:19;;;;;;;;;;;;;;;;;;2206650;66;1570;-22
2024/03/23 16:57:50;;;;;;;;;;;;;;;;;;2209721;66;1596;-22
2024/03/23 17:00:20;;;;;;;;;;;;;;;;;;2207334;66;1591;-22
2024/03/23 17:02:51;;;;;;;;;;;;;;;;;;2210290;58;2176;-22
2024/03/23 17:05:22;;;;;;;;;;;;;;;;;;2206531;66;2137;-22
2024/03/23 17:07:53;;;;;;;;;;;;;;;;;;2208414;66;1235;-22
2024/03/23 17:10:23;;;;;;;;;;;;;;;;;;2207573;59;1533;-22
2024/03/23 17:12:54;;;;;;;;;;;;;;;;;;2206845;66;1977;-22
2024/03/23 17:15:24;;;;;;;;;;;;;;;;;;2207674;66;1664;-22
2024/03/23 17:17:54;;;;;;;;;;;;;;;;;;2210127;58;1561;-22
2024/03/23 17:20:24;;;;;;;;;;;;;;;;;;2210111;66;1449;-22
2024/03/23 17:22:55;;;;;;;;;;;;;;;;;;2209372;59;1786;-22
2024/03/23 17:25:25;;;;;;;;;;;;;;;;;;2209715;66;1734;-22
2024/03/23 17:27:55;;;;;;;;;;;;;;;;;;2206783;66;1586;-22